Time;durP1;ratioP1;P1;durP2;ratioP2;P2;SDS_P1;SDS_P2;PMS_P1;PMS_P2;Temp;Humidity;BMP_temperature;BMP_pressure;BME280_temperature;BME280_humidity;BME280_pressure;Samples;Min_cycle;Max_cycle;Signal;HPM_P1;HPM_P2
2024/01/31 00:01:54;;;;;;;30.33;18.58;;;9.20;99.90;;;;;;5009595;28;20034;-49
2024/01/31 00:04:19;;;;;;;28.98;19.08;;;9.20;99.90;;;;;;4985142;28;20419;-55
2024/01/31 00:06:49;;;;;;;32.90;20.42;;;9.20;99.90;;;;;;5003177;28;20041;-53
2024/01/31 00:09:15;;;;;;;26.27;19.35;;;9.10;99.90;;;;;;5007086;28;20018;-50
2024/01/31 00:11:40;;;;;;;27.23;18.90;;;9.10;99.90;;;;;;4989479;28;20104;-53
2024/01/31 00:14:07;;;;;;;27.60;19.88;;;9.10;99.90;;;;;;4989162;28;20126;-55
2024/01/31 00:16:33;;;;;;;26.80;19.58;;;9.10;99.90;;;;;;4992481;28;20018;-52
2024/01/31 00:18:59;;;;;;;24.85;17.70;;;9.00;99.90;;;;;;4994689;28;20073;-52
2024/01/31 00:21:24;;;;;;;30.85;20.83;;;9.00;99.90;;;;;;4993089;28;20022;-53
2024/01/31 00:23:50;;;;;;;29.95;21.17;;;9.00;99.90;;;;;;4997622;28;20026;-55
2024/01/31 00:26:15;;;;;;;35.38;20.15;;;9.00;99.90;;;;;;5003177;28;20304;-54
2024/01/31 00:28:41;;;;;;;28.83;19.83;;;9.00;99.90;;;;;;5001825;28;20033;-51
2024/01/31 00:31:10;;;;;;;26.85;18.95;;;8.90;99.90;;;;;;4992375;28;20030;-49
2024/01/31 00:33:35;;;;;;;25.95;18.08;;;8.90;99.90;;;;;;4992058;28;20026;-54
2024/01/31 00:36:01;;;;;;;29.80;19.17;;;9.00;99.90;;;;;;4992568;28;20402;-51
2024/01/31 00:38:26;;;;;;;33.20;21.05;;;9.00;99.90;;;;;;4992337;28;20037;-53
2024/01/31 00:40:54;;;;;;;29.10;20.35;;;8.90;99.90;;;;;;4974983;28;20439;-50
2024/01/31 00:43:19;;;;;;;31.02;20.25;;;8.90;99.90;;;;;;4992035;28;20027;-53
2024/01/31 00:45:45;;;;;;;34.28;20.55;;;8.90;99.90;;;;;;4996332;28;20447;-49
2024/01/31 00:48:10;;;;;;;34.42;21.20;;;8.90;99.90;;;;;;5019669;23;20448;-41
2024/01/31 00:50:36;;;;;;;26.25;20.90;;;8.90;99.90;;;;;;5033479;28;20048;-45
2024/01/31 00:53:01;;;;;;;28.67;21.60;;;8.90;99.90;;;;;;5034884;28;20029;-43
2024/01/31 00:55:27;;;;;;;30.45;21.25;;;8.80;99.90;;;;;;5035082;28;20566;-42
2024/01/31 00:57:52;;;;;;;29.95;22.23;;;8.90;99.90;;;;;;5017397;28;20037;-46
2024/01/31 01:00:18;;;;;;;37.67;22.70;;;9.00;99.90;;;;;;5035131;28;20053;-42
2024/01/31 01:02:43;;;;;;;36.33;21.58;;;8.80;99.90;;;;;;5034679;28;20064;-43
2024/01/31 01:05:10;;;;;;;30.40;23.02;;;8.80;99.90;;;;;;5035859;28;20025;-44
2024/01/31 01:07:38;;;;;;;33.35;22.35;;;9.00;99.90;;;;;;5034872;28;20025;-44
2024/01/31 01:10:14;;;;;;;33.67;23.52;;;8.90;99.90;;;;;;5034893;28;20474;-43
2024/01/31 01:12:41;;;;;;;31.45;22.52;;;8.90;99.90;;;;;;5034567;28;20021;-42
2024/01/31 01:15:08;;;;;;;33.10;21.77;;;8.70;99.90;;;;;;5034712;28;20029;-43
2024/01/31 01:17:34;;;;;;;25.80;18.83;;;8.70;99.90;;;;;;5035077;28;20153;-46
2024/01/31 01:20:00;;;;;;;32.13;21.55;;;8.70;99.90;;;;;;5034882;28;20021;-46
2024/01/31 01:22:26;;;;;;;27.52;20.60;;;8.70;99.90;;;;;;5034523;28;20379;-41
2024/01/31 01:24:52;;;;;;;26.65;20.10;;;8.60;99.90;;;;;;5034807;28;20029;-44
2024/01/31 01:27:18;;;;;;;31.38;21.42;;;8.60;99.90;;;;;;5034644;28;20429;-41
2024/01/31 01:29:44;;;;;;;29.98;19.92;;;8.60;99.90;;;;;;5034404;28;20092;-44
2024/01/31 01:32:09;;;;;;;34.83;20.80;;;8.60;99.90;;;;;;5034428;28;20059;-46
2024/01/31 01:34:35;;;;;;;30.02;22.17;;;8.90;99.90;;;;;;5034355;28;20108;-48
2024/01/31 01:37:01;;;;;;;34.17;22.27;;;8.90;99.90;;;;;;5016677;28;20022;-46
2024/01/31 01:39:26;;;;;;;35.67;23.67;;;8.80;99.90;;;;;;5016567;28;20501;-42
2024/01/31 01:41:52;;;;;;;35.15;22.40;;;8.70;99.90;;;;;;5034305;28;20017;-46
2024/01/31 01:44:17;;;;;;;30.88;22.23;;;8.70;99.90;;;;;;5033907;28;20093;-41
2024/01/31 01:46:44;;;;;;;35.22;22.50;;;8.60;99.90;;;;;;5034294;28;20025;-42
2024/01/31 01:49:13;;;;;;;37.10;22.05;;;8.60;99.90;;;;;;5016250;28;20033;-43
2024/01/31 01:51:41;;;;;;;27.35;21.10;;;8.50;99.90;;;;;;5034162;28;20014;-48
2024/01/31 01:54:12;;;;;;;30.23;20.10;;;8.50;99.90;;;;;;5016276;28;20030;-42
2024/01/31 01:56:43;;;;;;;31.70;22.50;;;8.50;99.90;;;;;;5034209;28;20018;-46
2024/01/31 01:59:09;;;;;;;40.05;23.98;;;8.50;99.90;;;;;;5016660;28;20021;-42
2024/01/31 02:01:37;;;;;;;33.10;21.35;;;8.60;99.90;;;;;;5035396;28;20025;-44
2024/01/31 02:04:05;;;;;;;37.33;21.60;;;8.50;99.90;;;;;;5018169;28;20478;-43
2024/01/31 02:06:30;;;;;;;33.20;23.05;;;8.50;99.90;;;;;;5035730;28;20112;-46
2024/01/31 02:08:57;;;;;;;34.85;23.63;;;8.50;99.90;;;;;;5035599;28;20501;-45
2024/01/31 02:11:22;;;;;;;29.15;22.88;;;8.40;99.90;;;;;;5034598;28;20394;-46
2024/01/31 02:13:48;;;;;;;34.72;23.42;;;8.40;99.90;;;;;;5034320;28;20029;-42
2024/01/31 02:16:13;;;;;;;25.83;20.35;;;8.20;99.90;;;;;;5034021;28;20036;-46
2024/01/31 02:18:40;;;;;;;31.50;21.40;;;8.20;99.90;;;;;;5034035;28;20029;-44
2024/01/31 02:21:05;;;;;;;31.05;22.48;;;8.20;99.90;;;;;;5033605;28;20075;-44
2024/01/31 02:23:31;;;;;;;32.33;22.45;;;8.20;99.90;;;;;;5033382;28;20034;-43
2024/01/31 02:25:56;;;;;;;31.08;22.38;;;8.40;99.90;;;;;;5033506;28;20418;-48
2024/01/31 02:28:22;;;;;;;30.92;21.02;;;8.30;99.90;;;;;;5033367;28;20064;-44
2024/01/31 02:30:48;;;;;;;34.95;21.20;;;8.30;99.90;;;;;;5033449;28;20029;-42
2024/01/31 02:33:13;;;;;;;32.03;22.13;;;8.20;99.90;;;;;;5033177;28;20021;-46
2024/01/31 02:35:39;;;;;;;29.13;21.05;;;8.20;99.90;;;;;;5033105;28;20078;-43
2024/01/31 02:38:04;;;;;;;33.78;21.30;;;8.20;99.90;;;;;;5033177;28;20045;-45
2024/01/31 02:40:30;;;;;;;33.13;21.95;;;8.20;99.90;;;;;;5015438;28;20066;-40
2024/01/31 02:42:59;;;;;;;39.25;22.88;;;8.30;99.90;;;;;;5032919;28;20041;-45
2024/01/31 02:45:25;;;;;;;31.33;21.05;;;8.20;99.90;;;;;;5033062;28;20076;-43
2024/01/31 02:47:51;;;;;;;34.03;22.13;;;8.20;99.90;;;;;;5033068;28;20522;-42
2024/01/31 02:50:16;;;;;;;26.60;19.80;;;8.20;99.90;;;;;;5033226;28;20509;-43
2024/01/31 02:52:42;;;;;;;30.42;22.17;;;8.20;99.90;;;;;;5032710;28;20103;-43
2024/01/31 02:55:08;;;;;;;32.20;20.92;;;8.30;99.90;;;;;;5032967;28;20041;-45
2024/01/31 02:57:34;;;;;;;37.10;21.95;;;8.30;99.90;;;;;;5032880;28;20029;-45
2024/01/31 03:00:00;;;;;;;25.95;19.17;;;8.30;99.90;;;;;;5032798;28;20394;-44
2024/01/31 03:02:26;;;;;;;31.02;21.58;;;8.20;99.90;;;;;;5032654;28;20021;-44
2024/01/31 03:04:51;;;;;;;34.47;22.52;;;8.20;99.90;;;;;;5032661;28;20065;-44
2024/01/31 03:07:17;;;;;;;26.92;20.50;;;8.30;99.90;;;;;;5032185;28;20036;-44
2024/01/31 03:09:43;;;;;;;32.08;21.88;;;8.30;99.90;;;;;;5032599;28;20029;-43
2024/01/31 03:12:08;;;;;;;39.78;22.73;;;8.10;99.90;;;;;;5032634;28;20026;-43
2024/01/31 03:14:34;;;;;;;37.60;23.05;;;8.30;99.90;;;;;;5032657;28;20068;-43
2024/01/31 03:17:00;;;;;;;36.53;22.73;;;8.30;99.90;;;;;;5032674;28;20040;-41
2024/01/31 03:19:28;;;;;;;40.55;23.92;;;8.20;99.90;;;;;;5032435;28;20029;-46
2024/01/31 03:21:54;;;;;;;31.05;21.90;;;8.20;99.90;;;;;;5032502;28;20044;-43
2024/01/31 03:24:19;;;;;;;30.27;22.13;;;8.20;99.90;;;;;;5032102;28;20025;-43
2024/01/31 03:26:45;;;;;;;28.98;21.27;;;8.20;99.90;;;;;;5032340;28;20107;-43
2024/01/31 03:29:11;;;;;;;28.77;21.08;;;8.20;99.90;;;;;;5032192;28;20398;-45
2024/01/31 03:31:37;;;;;;;25.80;19.17;;;8.20;99.90;;;;;;5032165;28;20094;-46
2024/01/31 03:34:02;;;;;;;32.83;21.45;;;8.20;99.90;;;;;;5031999;28;20108;-45
2024/01/31 03:36:28;;;;;;;29.52;19.63;;;8.20;99.90;;;;;;5032568;28;20123;-39
2024/01/31 03:38:55;;;;;;;26.65;20.88;;;8.20;99.90;;;;;;5032018;28;20030;-44
2024/01/31 03:41:21;;;;;;;31.17;21.10;;;8.10;99.90;;;;;;5032027;28;20033;-43
2024/01/31 03:43:46;;;;;;;29.40;20.90;;;8.10;99.90;;;;;;5031741;28;20402;-39
2024/01/31 03:46:12;;;;;;;28.60;20.30;;;8.10;99.90;;;;;;5032181;28;20071;-43
2024/01/31 03:48:37;;;;;;;33.15;21.33;;;8.10;99.90;;;;;;5031715;28;20057;-45
2024/01/31 03:51:03;;;;;;;28.20;20.40;;;8.10;99.90;;;;;;5031928;28;20033;-43
2024/01/31 03:53:29;;;;;;;29.70;19.33;;;8.20;99.90;;;;;;5031606;28;20107;-40
2024/01/31 03:55:54;;;;;;;27.48;18.15;;;8.20;99.90;;;;;;5014093;28;20034;-43
2024/01/31 03:58:20;;;;;;;34.55;20.98;;;8.20;99.90;;;;;;5031721;28;20486;-44
2024/01/31 04:00:46;;;;;;;31.38;21.67;;;8.20;99.90;;;;;;5014035;28;20402;-43
2024/01/31 04:03:11;;;;;;;28.52;20.35;;;8.20;99.90;;;;;;5031456;28;20026;-45
2024/01/31 04:05:37;;;;;;;29.60;20.08;;;8.20;99.90;;;;;;5031816;28;20033;-43
2024/01/31 04:08:02;;;;;;;35.38;20.92;;;8.10;99.90;;;;;;5031542;28;20036;-46
2024/01/31 04:10:28;;;;;;;30.50;20.25;;;8.10;99.90;;;;;;5031475;28;20021;-49
2024/01/31 04:12:53;;;;;;;31.88;21.33;;;8.10;99.90;;;;;;5031320;28;20049;-43
2024/01/31 04:15:19;;;;;;;35.30;21.42;;;8.20;99.90;;;;;;5031778;28;20119;-43
2024/01/31 04:17:45;;;;;;;35.63;24.30;;;8.10;99.90;;;;;;5031390;28;20508;-43
2024/01/31 04:20:11;;;;;;;40.80;24.10;;;8.00;99.90;;;;;;5030751;28;20030;-48
2024/01/31 04:22:38;;;;;;;35.58;22.10;;;8.10;99.90;;;;;;5031059;28;20037;-44
2024/01/31 04:25:04;;;;;;;32.83;19.88;;;8.00;99.90;;;;;;5031308;28;20198;-43
2024/01/31 04:27:30;;;;;;;31.40;22.20;;;7.90;99.90;;;;;;5031545;28;20030;-43
2024/01/31 04:29:55;;;;;;;30.02;21.17;;;7.90;99.90;;;;;;5013708;28;20509;-44
2024/01/31 04:32:23;;;;;;;29.40;21.55;;;7.90;99.90;;;;;;5031210;28;20026;-44
2024/01/31 04:34:48;;;;;;;27.63;20.25;;;7.90;99.90;;;;;;5031247;28;20036;-43
2024/01/31 04:37:14;;;;;;;27.92;19.42;;;7.90;99.90;;;;;;5031854;28;20453;-44
2024/01/31 04:39:39;;;;;;;26.02;18.83;;;7.70;99.90;;;;;;5013434;28;20037;-48
2024/01/31 04:42:05;;;;;;;32.08;20.83;;;7.60;99.90;;;;;;5013489;28;20371;-44
2024/01/31 04:44:30;;;;;;;31.10;21.00;;;7.60;99.90;;;;;;5031038;28;20034;-44
2024/01/31 04:46:56;;;;;;;26.90;19.90;;;7.60;99.90;;;;;;5031126;28;20025;-47
2024/01/31 04:49:21;;;;;;;32.13;20.92;;;7.60;99.90;;;;;;5030929;28;20124;-50
2024/01/31 04:51:47;;;;;;;26.05;18.98;;;7.50;99.90;;;;;;5031053;28;20083;-46
2024/01/31 04:54:12;;;;;;;26.38;19.50;;;7.50;99.90;;;;;;5030812;28;20463;-41
2024/01/31 04:56:38;;;;;;;29.27;19.23;;;7.60;99.90;;;;;;5031378;28;20036;-45
2024/01/31 04:59:03;;;;;;;27.60;18.08;;;7.50;99.90;;;;;;5031048;28;20025;-43
2024/01/31 05:01:29;;;;;;;25.55;17.67;;;7.50;99.90;;;;;;5031488;28;20402;-44
2024/01/31 05:03:57;;;;;;;29.95;18.65;;;7.40;99.90;;;;;;5031255;28;20028;-42
2024/01/31 05:06:23;;;;;;;25.85;16.50;;;7.50;99.90;;;;;;5031200;28;20029;-43
2024/01/31 05:08:48;;;;;;;26.55;16.38;;;7.40;99.90;;;;;;5030849;28;20380;-45
2024/01/31 05:11:14;;;;;;;26.25;16.27;;;7.40;99.90;;;;;;5030984;28;20095;-45
2024/01/31 05:13:40;;;;;;;20.75;15.07;;;7.40;99.90;;;;;;5012990;28;20473;-43
2024/01/31 05:16:09;;;;;;;30.73;17.30;;;7.40;99.90;;;;;;5030902;28;20032;-45
2024/01/31 05:18:35;;;;;;;25.13;16.83;;;7.30;99.90;;;;;;5031209;28;20072;-42
2024/01/31 05:21:01;;;;;;;21.55;15.32;;;7.30;99.90;;;;;;5030836;28;20388;-46
2024/01/31 05:23:27;;;;;;;20.10;14.13;;;7.30;99.90;;;;;;5030706;28;20357;-43
2024/01/31 05:25:52;;;;;;;20.30;15.38;;;7.20;99.90;;;;;;5030791;28;20029;-44
2024/01/31 05:28:18;;;;;;;25.33;16.80;;;7.20;99.90;;;;;;5030744;28;20025;-46
2024/01/31 05:30:43;;;;;;;23.77;16.90;;;7.30;99.90;;;;;;5032865;28;20029;-44
2024/01/31 05:33:09;;;;;;;24.90;16.60;;;7.20;99.90;;;;;;5034333;28;20030;-50
2024/01/31 05:35:36;;;;;;;20.75;15.35;;;7.10;99.90;;;;;;5034920;28;20029;-43
2024/01/31 05:38:03;;;;;;;22.25;14.45;;;7.20;99.90;;;;;;5034391;28;20051;-47
2024/01/31 05:40:29;;;;;;;19.23;15.88;;;7.10;99.90;;;;;;5034405;28;20037;-44
2024/01/31 05:42:54;;;;;;;24.50;16.70;;;7.00;99.90;;;;;;5016298;28;20033;-45
2024/01/31 05:45:20;;;;;;;21.63;15.50;;;7.00;99.90;;;;;;5034196;28;20037;-43
2024/01/31 05:47:45;;;;;;;20.27;14.05;;;7.00;99.90;;;;;;5034945;28;20402;-49
2024/01/31 05:50:11;;;;;;;19.92;15.50;;;7.00;99.90;;;;;;5034296;28;20517;-43
2024/01/31 05:52:36;;;;;;;18.88;14.98;;;6.90;99.90;;;;;;5033837;28;20039;-43
2024/01/31 05:55:02;;;;;;;20.85;16.15;;;6.90;99.90;;;;;;5034096;28;20542;-48
2024/01/31 05:57:28;;;;;;;21.27;16.38;;;7.00;99.90;;;;;;5033935;28;20103;-49
2024/01/31 05:59:53;;;;;;;19.20;14.50;;;7.10;99.90;;;;;;5033959;28;20116;-47
2024/01/31 06:02:18;;;;;;;16.40;13.10;;;7.00;99.90;;;;;;5033843;28;20495;-44
2024/01/31 06:04:44;;;;;;;19.08;13.43;;;7.00;99.90;;;;;;5033606;28;20022;-43
2024/01/31 06:07:12;;;;;;;15.68;12.30;;;7.00;99.90;;;;;;5033896;28;20025;-45
2024/01/31 06:09:38;;;;;;;18.02;12.73;;;7.00;99.90;;;;;;5033843;28;20013;-49
2024/01/31 06:12:04;;;;;;;19.88;12.20;;;7.00;99.90;;;;;;5033789;28;20026;-44
2024/01/31 06:14:31;;;;;;;17.83;12.52;;;7.00;99.90;;;;;;5033654;28;20105;-43
2024/01/31 06:16:57;;;;;;;17.05;12.60;;;6.90;99.90;;;;;;5034270;28;20088;-44
2024/01/31 06:19:22;;;;;;;16.70;11.85;;;6.80;99.90;;;;;;5033601;28;20033;-43
2024/01/31 06:21:48;;;;;;;17.35;11.93;;;6.80;99.90;;;;;;5033520;28;20032;-45
2024/01/31 06:24:13;;;;;;;18.75;13.55;;;6.80;99.90;;;;;;5033300;28;20022;-50
2024/01/31 06:26:40;;;;;;;17.75;12.77;;;6.70;99.90;;;;;;5033483;28;20398;-48
2024/01/31 06:29:06;;;;;;;16.02;12.68;;;6.70;99.90;;;;;;5033400;28;20026;-43
2024/01/31 06:31:35;;;;;;;15.35;11.63;;;6.60;99.90;;;;;;5033446;28;20029;-48
2024/01/31 06:34:01;;;;;;;16.17;11.93;;;6.60;99.90;;;;;;5033073;28;20590;-44
2024/01/31 06:36:26;;;;;;;18.77;13.48;;;6.60;99.90;;;;;;5033381;28;20104;-43
2024/01/31 06:38:52;;;;;;;15.85;11.40;;;6.50;99.90;;;;;;5033244;28;20118;-44
2024/01/31 06:41:17;;;;;;;18.40;11.00;;;6.50;99.90;;;;;;5032991;28;20035;-48
2024/01/31 06:43:43;;;;;;;12.60;10.20;;;6.50;99.90;;;;;;5032887;28;20030;-46
2024/01/31 06:46:09;;;;;;;13.25;9.13;;;6.50;99.90;;;;;;5033044;28;20108;-50
2024/01/31 06:48:34;;;;;;;11.73;8.35;;;6.50;99.90;;;;;;5033403;28;20037;-43
2024/01/31 06:51:00;;;;;;;16.50;11.27;;;6.50;99.90;;;;;;5033495;28;20021;-43
2024/01/31 06:53:27;;;;;;;13.82;10.40;;;6.60;99.90;;;;;;5032926;28;20198;-44
2024/01/31 06:55:53;;;;;;;12.50;9.10;;;6.60;99.90;;;;;;5035148;28;20030;-43
2024/01/31 06:58:18;;;;;;;11.90;9.32;;;6.70;99.90;;;;;;5012979;28;20029;-46
2024/01/31 07:00:44;;;;;;;11.13;8.70;;;6.70;99.90;;;;;;5019657;28;20021;-43
2024/01/31 07:03:10;;;;;;;14.23;9.18;;;6.70;99.90;;;;;;5030840;28;20037;-45
2024/01/31 07:05:35;;;;;;;13.68;9.32;;;6.80;99.90;;;;;;5033108;28;20049;-44
2024/01/31 07:08:01;;;;;;;12.10;8.93;;;6.80;99.90;;;;;;5032861;28;20084;-44
2024/01/31 07:10:27;;;;;;;11.15;9.50;;;6.90;99.90;;;;;;5044439;28;20029;-44
2024/01/31 07:12:53;;;;;;;11.20;9.50;;;6.90;99.90;;;;;;5052172;28;20025;-48
2024/01/31 07:15:22;;;;;;;13.65;10.20;;;6.90;99.90;;;;;;5034028;28;20081;-49
2024/01/31 07:17:48;;;;;;;13.23;9.77;;;6.90;99.90;;;;;;5012671;28;20037;-45
2024/01/31 07:20:13;;;;;;;13.15;10.57;;;6.90;99.90;;;;;;5012649;28;20034;-44
2024/01/31 07:22:39;;;;;;;13.70;10.13;;;6.90;99.90;;;;;;5012348;28;20407;-45
2024/01/31 07:25:10;;;;;;;15.15;10.70;;;6.80;99.90;;;;;;5016645;28;20033;-41
2024/01/31 07:27:38;;;;;;;13.93;9.65;;;6.80;99.90;;;;;;5021087;28;20037;-45
2024/01/31 07:30:04;;;;;;;23.55;11.38;;;6.90;99.90;;;;;;5032200;28;20033;-45
2024/01/31 07:32:29;;;;;;;14.73;10.05;;;6.90;99.90;;;;;;5016686;28;20026;-41
2024/01/31 07:34:55;;;;;;;18.58;10.30;;;6.90;99.90;;;;;;5012613;28;20023;-41
2024/01/31 07:37:20;;;;;;;16.17;9.38;;;6.90;99.90;;;;;;5015124;28;20509;-43
2024/01/31 07:39:46;;;;;;;14.30;9.48;;;7.00;99.90;;;;;;5032013;28;20079;-44
2024/01/31 07:42:12;;;;;;;13.05;9.55;;;7.00;99.90;;;;;;5031879;28;20529;-41
2024/01/31 07:44:38;;;;;;;12.50;9.65;;;7.00;99.90;;;;;;5031575;28;20036;-47
2024/01/31 07:47:03;;;;;;;14.32;10.93;;;7.10;99.90;;;;;;5031925;28;20022;-44
2024/01/31 07:49:30;;;;;;;14.73;11.05;;;7.20;99.90;;;;;;5030133;28;20028;-42
2024/01/31 07:51:57;;;;;;;16.98;9.80;;;7.20;99.90;;;;;;5031984;28;20095;-41
2024/01/31 07:54:22;;;;;;;9.63;6.45;;;7.20;99.90;;;;;;5031412;28;20017;-43
2024/01/31 07:56:48;;;;;;;11.15;8.55;;;7.20;99.90;;;;;;5013922;28;20048;-39
2024/01/31 07:59:13;;;;;;;13.05;9.88;;;7.20;99.90;;;;;;5031797;28;20414;-39
2024/01/31 08:01:39;;;;;;;13.65;9.80;;;7.20;99.90;;;;;;5031232;28;20044;-43
2024/01/31 08:04:05;;;;;;;14.27;9.77;;;7.30;99.90;;;;;;5031084;28;20030;-47
2024/01/31 08:06:30;;;;;;;12.90;9.82;;;7.30;99.90;;;;;;5031562;28;20021;-43
2024/01/31 08:08:56;;;;;;;11.85;9.95;;;7.40;99.90;;;;;;5031400;28;20029;-45
2024/01/31 08:11:21;;;;;;;15.07;11.07;;;7.40;99.90;;;;;;5029259;28;20100;-43
2024/01/31 08:13:47;;;;;;;14.00;10.00;;;7.40;99.90;;;;;;5022733;28;20041;-46
2024/01/31 08:16:12;;;;;;;11.00;8.90;;;7.60;99.90;;;;;;5031897;28;20063;-44
2024/01/31 08:18:38;;;;;;;6.82;5.43;;;7.60;99.90;;;;;;5031425;28;20033;-43
2024/01/31 08:21:05;;;;;;;8.02;5.50;;;7.70;99.90;;;;;;5023775;28;20075;-44
2024/01/31 08:23:30;;;;;;;5.68;4.97;;;7.60;99.90;;;;;;5022771;28;20037;-47
2024/01/31 08:25:56;;;;;;;6.28;4.25;;;7.50;99.90;;;;;;5011687;28;20026;-43
2024/01/31 08:28:21;;;;;;;5.43;3.78;;;7.50;99.90;;;;;;5022508;28;20036;-43
2024/01/31 08:30:47;;;;;;;6.45;5.03;;;7.50;99.90;;;;;;5031355;28;20040;-45
2024/01/31 08:33:12;;;;;;;6.45;4.80;;;7.50;99.90;;;;;;5017336;28;20041;-42
2024/01/31 08:35:38;;;;;;;5.47;4.13;;;7.50;99.90;;;;;;5015192;28;20142;-43
2024/01/31 08:38:04;;;;;;;6.55;4.07;;;7.60;99.90;;;;;;5027391;28;20040;-42
2024/01/31 08:40:29;;;;;;;9.95;5.20;;;7.60;99.90;;;;;;5026386;28;20093;-43
2024/01/31 08:42:58;;;;;;;7.50;5.03;;;7.60;99.90;;;;;;5014888;28;20033;-44
2024/01/31 08:45:24;;;;;;;5.80;4.47;;;7.70;99.90;;;;;;5024155;28;20041;-44
2024/01/31 08:47:49;;;;;;;5.22;4.60;;;7.80;99.90;;;;;;5031224;28;20022;-44
2024/01/31 08:50:15;;;;;;;4.45;4.05;;;7.90;99.90;;;;;;5031664;28;20030;-42
2024/01/31 08:52:40;;;;;;;8.50;5.30;;;8.00;99.90;;;;;;5030793;28;20072;-47
2024/01/31 08:55:06;;;;;;;6.43;5.70;;;8.10;99.90;;;;;;5031049;28;20055;-45
2024/01/31 08:57:32;;;;;;;6.53;4.97;;;8.20;99.90;;;;;;5031006;28;20025;-47
2024/01/31 08:59:57;;;;;;;8.18;5.43;;;8.30;99.90;;;;;;5031241;28;20036;-46
2024/01/31 09:02:23;;;;;;;9.15;5.22;;;8.40;99.90;;;;;;5031150;28;20483;-45
2024/01/31 09:04:48;;;;;;;7.00;5.28;;;8.40;99.90;;;;;;5014019;28;20033;-44
2024/01/31 09:07:14;;;;;;;5.60;4.65;;;8.50;99.90;;;;;;5034831;28;20026;-42
2024/01/31 09:09:39;;;;;;;5.30;4.72;;;8.70;99.90;;;;;;5034828;28;20100;-43
2024/01/31 09:12:06;;;;;;;7.13;4.43;;;8.80;99.90;;;;;;5034761;28;20043;-45
2024/01/31 09:14:33;;;;;;;7.03;4.40;;;8.80;99.90;;;;;;5016706;28;20533;-43
2024/01/31 09:16:58;;;;;;;5.32;3.67;;;8.80;99.90;;;;;;5028632;28;20028;-45
2024/01/31 09:19:25;;;;;;;4.90;3.80;;;8.70;99.90;;;;;;5015839;28;20026;-40
2024/01/31 09:21:50;;;;;;;6.72;3.97;;;8.60;99.90;;;;;;5034155;28;20030;-46
2024/01/31 09:24:16;;;;;;;4.50;3.72;;;8.60;99.90;;;;;;5034211;28;20033;-46
2024/01/31 09:26:41;;;;;;;4.68;3.58;;;8.50;99.90;;;;;;5021024;28;20038;-44
2024/01/31 09:29:07;;;;;;;7.15;3.30;;;8.50;99.90;;;;;;5023465;28;20100;-44
2024/01/31 09:31:32;;;;;;;4.68;3.60;;;8.50;99.90;;;;;;5035357;28;20029;-42
2024/01/31 09:33:58;;;;;;;5.70;3.38;;;8.60;99.90;;;;;;5022286;28;20041;-48
2024/01/31 09:36:23;;;;;;;4.53;3.10;;;8.60;99.90;;;;;;5034411;28;20461;-46
2024/01/31 09:38:50;;;;;;;6.35;3.80;;;8.70;99.90;;;;;;5034866;28;20026;-43
2024/01/31 09:41:16;;;;;;;6.00;3.67;;;8.90;99.90;;;;;;5034339;28;20095;-53
2024/01/31 09:43:43;;;;;;;3.10;2.80;;;9.00;99.90;;;;;;5034175;28;20125;-48
2024/01/31 09:46:08;;;;;;;3.95;3.35;;;9.30;99.90;;;;;;5015407;28;20025;-46
2024/01/31 09:48:35;;;;;;;3.00;2.60;;;9.40;99.90;;;;;;5021997;28;20021;-43
2024/01/31 09:51:04;;;;;;;4.50;2.40;;;9.80;99.90;;;;;;5034225;28;20382;-44
2024/01/31 09:53:36;;;;;;;4.28;2.30;;;10.50;99.90;;;;;;5029906;28;20364;-50
2024/01/31 09:56:02;;;;;;;3.33;1.95;;;11.10;99.90;;;;;;4997101;28;20080;-43
2024/01/31 09:58:28;;;;;;;1.83;1.58;;;11.50;99.90;;;;;;5014157;28;20068;-47
2024/01/31 10:00:54;;;;;;;2.88;2.17;;;12.00;99.90;;;;;;5015376;28;20065;-44
2024/01/31 10:03:19;;;;;;;1.73;1.55;;;12.30;99.90;;;;;;5014384;28;20562;-46
2024/01/31 10:05:45;;;;;;;1.45;1.35;;;12.60;99.90;;;;;;5014124;28;20034;-45
2024/01/31 10:08:10;;;;;;;4.22;1.67;;;12.50;99.90;;;;;;5044548;28;20025;-45
2024/01/31 10:10:36;;;;;;;3.88;1.50;;;12.20;99.90;;;;;;5054322;28;20114;-45
2024/01/31 10:13:03;;;;;;;2.60;0.93;;;12.50;99.90;;;;;;5044534;28;20606;-45
2024/01/31 10:15:29;;;;;;;2.72;1.10;;;12.80;99.90;;;;;;5013969;28;20064;-43
2024/01/31 10:17:54;;;;;;;1.75;1.65;;;12.60;99.90;;;;;;5012516;28;20057;-43
2024/01/31 10:20:20;;;;;;;1.92;1.10;;;12.30;99.90;;;;;;5024578;28;20033;-44
2024/01/31 10:22:46;;;;;;;3.13;1.25;;;12.10;99.90;;;;;;5033348;28;20060;-47
2024/01/31 10:25:16;;;;;;;2.00;1.40;;;12.10;99.90;;;;;;5033473;28;20127;-42
2024/01/31 10:27:43;;;;;;;0.95;0.95;;;11.70;99.90;;;;;;5016397;28;20029;-46
2024/01/31 10:30:10;;;;;;;2.63;1.38;;;11.60;99.90;;;;;;5023039;28;20077;-43
2024/01/31 10:32:38;;;;;;;2.85;1.20;;;11.50;99.90;;;;;;5017865;28;20087;-42
2024/01/31 10:35:04;;;;;;;2.00;1.50;;;11.40;99.90;;;;;;5025697;28;20398;-41
2024/01/31 10:37:32;;;;;;;3.65;1.45;;;11.40;99.90;;;;;;5013663;28;20084;-41
2024/01/31 10:39:58;;;;;;;1.40;1.30;;;11.20;99.90;;;;;;5021696;28;20021;-39
2024/01/31 10:42:24;;;;;;;6.75;3.90;;;11.10;99.90;;;;;;5033348;28;20034;-41
2024/01/31 10:44:50;;;;;;;35.78;20.05;;;11.00;99.90;;;;;;5033214;28;20036;-41
2024/01/31 10:47:16;;;;;;;6.40;3.75;;;11.10;99.90;;;;;;5020105;28;20022;-41
2024/01/31 10:49:42;;;;;;;1.00;1.00;;;11.30;99.90;;;;;;5016964;28;20053;-42
2024/01/31 10:52:12;;;;;;;1.90;1.80;;;11.30;99.90;;;;;;5037098;28;20061;-41
2024/01/31 10:54:42;;;;;;;1.42;1.40;;;11.00;99.90;;;;;;5046863;28;20018;-46
2024/01/31 10:57:09;;;;;;;2.30;1.55;;;10.80;99.90;;;;;;5034395;28;20025;-41
2024/01/31 10:59:38;;;;;;;1.70;1.40;;;10.60;99.90;;;;;;5023842;28;20434;-43
2024/01/31 11:02:04;;;;;;;2.17;1.58;;;10.30;99.90;;;;;;5032466;28;20021;-43
2024/01/31 11:04:29;;;;;;;4.20;1.70;;;10.20;99.90;;;;;;5031807;28;20051;-44
2024/01/31 11:07:03;;;;;;;2.42;1.58;;;10.10;99.90;;;;;;5027997;28;20057;-45
2024/01/31 11:09:28;;;;;;;2.28;1.63;;;10.10;99.90;;;;;;5011887;28;20021;-47
2024/01/31 11:12:04;;;;;;;3.25;1.50;;;10.00;99.90;;;;;;5032232;28;20033;-45
2024/01/31 11:14:30;;;;;;;2.20;1.58;;;9.90;99.90;;;;;;5031727;28;20029;-44
2024/01/31 11:17:26;;;;;;;5.38;1.65;;;9.90;99.90;;;;;;5027899;28;20029;-46
2024/01/31 11:20:00;;;;;;;3.42;1.20;;;10.00;99.90;;;;;;5014587;28;20017;-45
2024/01/31 11:22:26;;;;;;;1.90;1.40;;;10.00;99.90;;;;;;5031737;28;20083;-41
2024/01/31 11:24:53;;;;;;;2.78;1.15;;;10.00;99.90;;;;;;5032274;28;20494;-44
2024/01/31 11:27:19;;;;;;;2.83;1.38;;;9.90;99.90;;;;;;5031980;28;20021;-45
2024/01/31 11:29:49;;;;;;;1.38;1.00;;;9.90;99.90;;;;;;5031875;28;20030;-44
2024/01/31 11:32:14;;;;;;;1.17;1.10;;;10.00;99.90;;;;;;5032015;28;20035;-44
2024/01/31 11:34:41;;;;;;;3.10;1.45;;;9.90;99.90;;;;;;5031861;28;20474;-43
2024/01/31 11:37:07;;;;;;;1.35;1.25;;;10.20;99.90;;;;;;5032266;28;20017;-44
2024/01/31 11:39:32;;;;;;;3.80;1.45;;;10.00;99.90;;;;;;5032077;28;20041;-47
2024/01/31 11:41:58;;;;;;;2.15;1.33;;;10.00;99.90;;;;;;5029082;28;20033;-47
2024/01/31 11:44:25;;;;;;;5.55;1.80;;;10.00;99.90;;;;;;5026845;28;20075;-44
2024/01/31 11:46:51;;;;;;;3.58;1.52;;;10.10;99.90;;;;;;5030291;28;20109;-45
2024/01/31 11:49:18;;;;;;;2.00;1.80;;;10.00;99.90;;;;;;5030789;28;20030;-49
2024/01/31 11:51:43;;;;;;;1.20;1.00;;;9.90;99.90;;;;;;5030734;28;20104;-50
2024/01/31 11:54:09;;;;;;;4.93;1.65;;;9.90;99.90;;;;;;5029897;28;20113;-46
2024/01/31 11:56:35;;;;;;;3.67;1.27;;;9.80;99.90;;;;;;5031753;28;20509;-46
2024/01/31 11:59:03;;;;;;;1.75;1.65;;;9.90;99.90;;;;;;5032744;28;20482;-45
2024/01/31 12:01:30;;;;;;;1.58;1.48;;;10.00;99.90;;;;;;5031589;28;20039;-45
2024/01/31 12:03:55;;;;;;;6.55;4.43;;;9.90;99.90;;;;;;5031214;28;20411;-47
2024/01/31 12:06:21;;;;;;;17.40;9.13;;;10.00;99.90;;;;;;5029520;28;20033;-50
2024/01/31 12:08:48;;;;;;;7.88;3.10;;;10.00;99.90;;;;;;5011986;28;20033;-44
2024/01/31 12:11:17;;;;;;;1.60;1.10;;;10.00;99.90;;;;;;5011776;28;20145;-45
2024/01/31 12:13:46;;;;;;;1.00;1.00;;;10.00;99.90;;;;;;5011588;28;20056;-44
2024/01/31 12:16:13;;;;;;;1.83;1.52;;;9.90;99.90;;;;;;5011638;28;20159;-47
2024/01/31 12:18:41;;;;;;;3.75;1.27;;;9.80;99.90;;;;;;5011560;28;20026;-45
2024/01/31 12:21:10;;;;;;;1.30;1.15;;;9.80;99.90;;;;;;5011992;28;20109;-48
2024/01/31 12:23:36;;;;;;;3.85;1.00;;;9.90;99.90;;;;;;5026192;28;20395;-46
2024/01/31 12:26:02;;;;;;;4.97;1.95;;;9.90;99.90;;;;;;5031955;28;20026;-48
2024/01/31 12:28:27;;;;;;;2.10;1.33;;;9.90;99.90;;;;;;5031204;28;20076;-45
2024/01/31 12:30:53;;;;;;;1.85;1.23;;;10.00;99.90;;;;;;5030029;28;20025;-49
2024/01/31 12:33:20;;;;;;;1.23;1.13;;;10.00;99.90;;;;;;5031129;28;20029;-48
2024/01/31 12:35:45;;;;;;;1.10;1.02;;;10.10;99.90;;;;;;5013399;28;20041;-46
2024/01/31 12:38:12;;;;;;;4.68;1.30;;;10.20;99.90;;;;;;5011274;28;20030;-47